sensor_id;sensor_type;location;lat;lon;timestamp;pressure;altitude;pressure_sealevel;temperature;humidity
61292;BME280;47165;42.664;23.368;2023-05-12T00:00:01;95273.72;;;12.27;56.29
61292;BME280;47165;42.664;23.368;2023-05-12T00:02:28;95274.56;;;12.27;55.52
61292;BME280;47165;42.664;23.368;2023-05-12T00:04:54;95276.13;;;12.16;55.85
61292;BME280;47165;42.664;23.368;2023-05-12T00:07:19;95277.00;;;12.16;55.76
61292;BME280;47165;42.664;23.368;2023-05-12T00:09:45;95275.13;;;12.18;56.36
61292;BME280;47165;42.664;23.368;2023-05-12T00:12:10;95269.94;;;12.02;56.34
61292;BME280;47165;42.664;23.368;2023-05-12T00:14:36;95274.50;;;11.99;56.18
61292;BME280;47165;42.664;23.368;2023-05-12T00:17:03;95279.38;;;12.05;56.55
61292;BME280;47165;42.664;23.368;2023-05-12T00:19:30;95265.53;;;12.03;56.67
61292;BME280;47165;42.664;23.368;2023-05-12T00:21:56;95262.53;;;11.95;56.66
61292;BME280;47165;42.664;23.368;2023-05-12T00:24:21;95269.13;;;11.86;56.70
61292;BME280;47165;42.664;23.368;2023-05-12T00:26:47;95274.50;;;11.99;57.31
61292;BME280;47165;42.664;23.368;2023-05-12T00:29:12;95265.53;;;12.03;57.17
61292;BME280;47165;42.664;23.368;2023-05-12T00:31:38;95269.09;;;12.02;56.13
61292;BME280;47165;42.664;23.368;2023-05-12T00:34:03;95269.47;;;11.96;56.29
61292;BME280;47165;42.664;23.368;2023-05-12T00:36:29;95265.81;;;11.98;56.53
61292;BME280;47165;42.664;23.368;2023-05-12T00:38:54;95272.25;;;11.93;56.70
61292;BME280;47165;42.664;23.368;2023-05-12T00:41:20;95286.00;;;11.80;57.54
61292;BME280;47165;42.664;23.368;2023-05-12T00:43:45;95277.72;;;11.88;57.74
61292;BME280;47165;42.664;23.368;2023-05-12T00:46:11;95274.84;;;11.77;57.60
61292;BME280;47165;42.664;23.368;2023-05-12T00:48:37;95272.34;;;11.75;58.00
61292;BME280;47165;42.664;23.368;2023-05-12T00:51:03;95284.72;;;11.87;58.50
61292;BME280;47165;42.664;23.368;2023-05-12T00:53:30;95283.81;;;11.88;58.38
61292;BME280;47165;42.664;23.368;2023-05-12T00:55:55;95287.69;;;11.81;58.58
61292;BME280;47165;42.664;23.368;2023-05-12T00:58:22;95282.97;;;11.72;58.94
61292;BME280;47165;42.664;23.368;2023-05-12T01:00:47;95293.94;;;11.79;58.55
61292;BME280;47165;42.664;23.368;2023-05-12T01:03:13;95293.94;;;11.79;58.67
61292;BME280;47165;42.664;23.368;2023-05-12T01:08:10;95291.97;;;11.36;60.67
61292;BME280;47165;42.664;23.368;2023-05-12T01:10:35;95299.22;;;11.31;61.53
61292;BME280;47165;42.664;23.368;2023-05-12T01:13:01;95297.88;;;11.24;61.79
61292;BME280;47165;42.664;23.368;2023-05-12T01:15:28;95287.56;;;11.21;62.76
61292;BME280;47165;42.664;23.368;2023-05-12T01:17:57;95301.41;;;11.23;63.36
61292;BME280;47165;42.664;23.368;2023-05-12T01:20:26;95299.53;;;11.25;64.13
61292;BME280;47165;42.664;23.368;2023-05-12T01:22:53;95300.16;;;11.30;64.80
61292;BME280;47165;42.664;23.368;2023-05-12T01:25:21;95298.63;;;11.26;64.87
61292;BME280;47165;42.664;23.368;2023-05-12T01:27:48;95300.72;;;11.35;65.00
61292;BME280;47165;42.664;23.368;2023-05-12T01:30:17;95303.25;;;11.21;64.50
61292;BME280;47165;42.664;23.368;2023-05-12T01:32:43;95298.88;;;11.05;66.20
61292;BME280;47165;42.664;23.368;2023-05-12T01:35:09;95297.59;;;11.13;65.96
61292;BME280;47165;42.664;23.368;2023-05-12T01:37:35;95299.09;;;11.01;67.74
61292;BME280;47165;42.664;23.368;2023-05-12T01:40:00;95287.25;;;10.95;66.83
61292;BME280;47165;42.664;23.368;2023-05-12T01:42:26;95299.34;;;10.96;66.15
61292;BME280;47165;42.664;23.368;2023-05-12T01:44:52;95293.38;;;10.94;66.73
61292;BME280;47165;42.664;23.368;2023-05-12T01:47:17;95295.91;;;10.96;67.12
61292;BME280;47165;42.664;23.368;2023-05-12T01:49:43;95299.44;;;10.95;67.20
61292;BME280;47165;42.664;23.368;2023-05-12T01:52:08;95294.31;;;10.93;66.30
61292;BME280;47165;42.664;23.368;2023-05-12T01:54:33;95295.81;;;10.81;66.44
61292;BME280;47165;42.664;23.368;2023-05-12T01:56:59;95299.56;;;10.76;66.77
61292;BME280;47165;42.664;23.368;2023-05-12T01:59:25;95295.28;;;10.75;67.97
61292;BME280;47165;42.664;23.368;2023-05-12T02:01:50;95292.06;;;10.70;67.41
61292;BME280;47165;42.664;23.368;2023-05-12T02:04:15;95291.88;;;10.57;68.48
61292;BME280;47165;42.664;23.368;2023-05-12T02:06:41;95297.03;;;10.58;69.54
61292;BME280;47165;42.664;23.368;2023-05-12T02:09:06;95301.03;;;10.48;69.78
61292;BME280;47165;42.664;23.368;2023-05-12T02:11:32;95301.09;;;10.46;68.48
61292;BME280;47165;42.664;23.368;2023-05-12T02:13:57;95304.25;;;10.53;69.48
61292;BME280;47165;42.664;23.368;2023-05-12T02:16:23;95301.06;;;10.64;69.43
61292;BME280;47165;42.664;23.368;2023-05-12T02:18:48;95299.06;;;10.69;69.11
61292;BME280;47165;42.664;23.368;2023-05-12T02:21:14;95296.38;;;10.71;69.20
61292;BME280;47165;42.664;23.368;2023-05-12T02:23:39;95292.69;;;10.75;69.94
61292;BME280;47165;42.664;23.368;2023-05-12T02:26:04;95297.16;;;10.73;70.38
61292;BME280;47165;42.664;23.368;2023-05-12T02:28:30;95298.81;;;10.74;70.07
61292;BME280;47165;42.664;23.368;2023-05-12T02:30:55;95289.06;;;10.77;69.81
61292;BME280;47165;42.664;23.368;2023-05-12T02:33:21;95297.16;;;10.73;70.50
61292;BME280;47165;42.664;23.368;2023-05-12T02:35:47;95293.41;;;10.43;70.95
61292;BME280;47165;42.664;23.368;2023-05-12T02:38:13;95292.44;;;10.11;72.03
61292;BME280;47165;42.664;23.368;2023-05-12T02:40:38;95286.91;;;10.17;72.43
61292;BME280;47165;42.664;23.368;2023-05-12T02:43:04;95296.28;;;10.21;72.44
61292;BME280;47165;42.664;23.368;2023-05-12T02:45:30;95304.88;;;10.06;72.47
61292;BME280;47165;42.664;23.368;2023-05-12T02:47:55;95291.56;;;10.11;72.68
61292;BME280;47165;42.664;23.368;2023-05-12T02:50:20;95295.81;;;10.13;72.64
61292;BME280;47165;42.664;23.368;2023-05-12T02:52:47;95298.88;;;9.86;73.84
61292;BME280;47165;42.664;23.368;2023-05-12T02:55:12;95296.53;;;9.63;73.03
61292;BME280;47165;42.664;23.368;2023-05-12T02:57:38;95293.34;;;9.58;74.16
61292;BME280;47165;42.664;23.368;2023-05-12T03:00:04;95287.47;;;9.53;74.78
61292;BME280;47165;42.664;23.368;2023-05-12T03:02:31;95293.72;;;9.31;75.56
61292;BME280;47165;42.664;23.368;2023-05-12T03:04:56;95300.59;;;9.51;75.15
61292;BME280;47165;42.664;23.368;2023-05-12T03:07:22;95299.44;;;9.57;75.33
61292;BME280;47165;42.664;23.368;2023-05-12T03:21:48;95299.03;;;10.01;73.65
61292;BME280;47165;42.664;23.368;2023-05-12T03:24:14;95295.38;;;10.05;74.05
61292;BME280;47165;42.664;23.368;2023-05-12T03:26:39;95295.50;;;10.02;73.14
61292;BME280;47165;42.664;23.368;2023-05-12T03:29:05;95302.88;;;9.94;73.21
61292;BME280;47165;42.664;23.368;2023-05-12T03:31:30;95311.53;;;9.77;74.43
61292;BME280;47165;42.664;23.368;2023-05-12T03:33:56;95306.91;;;9.82;74.38
61292;BME280;47165;42.664;23.368;2023-05-12T03:36:21;95311.66;;;9.74;74.63
61292;BME280;47165;42.664;23.368;2023-05-12T03:38:47;95315.19;;;9.73;74.65
61292;BME280;47165;42.664;23.368;2023-05-12T03:41:13;95315.81;;;9.78;74.79
61292;BME280;47165;42.664;23.368;2023-05-12T03:43:38;95313.84;;;9.83;74.66
61292;BME280;47165;42.664;23.368;2023-05-12T03:46:04;95317.44;;;9.80;74.72
61292;BME280;47165;42.664;23.368;2023-05-12T03:48:30;95318.06;;;9.85;74.91
61292;BME280;47165;42.664;23.368;2023-05-12T03:50:55;95314.06;;;9.78;74.46
61292;BME280;47165;42.664;23.368;2023-05-12T03:53:21;95314.09;;;9.59;75.31
61292;BME280;47165;42.664;23.368;2023-05-12T03:55:46;95315.38;;;9.51;75.16
61292;BME280;47165;42.664;23.368;2023-05-12T03:58:11;95311.34;;;9.62;75.58
61292;BME280;47165;42.664;23.368;2023-05-12T04:00:37;95316.56;;;9.80;75.38
61292;BME280;47165;42.664;23.368;2023-05-12T04:03:02;95312.91;;;9.84;75.42
61292;BME280;47165;42.664;23.368;2023-05-12T04:05:28;95317.81;;;9.73;75.22
61292;BME280;47165;42.664;23.368;2023-05-12T04:07:53;95324.88;;;9.71;75.36
61292;BME280;47165;42.664;23.368;2023-05-12T04:10:19;95330.31;;;9.66;76.57
61292;BME280;47165;42.664;23.368;2023-05-12T04:12:44;95330.59;;;9.60;75.29
61292;BME280;47165;42.664;23.368;2023-05-12T04:15:10;95335.28;;;9.71;76.34
61292;BME280;47165;42.664;23.368;2023-05-12T04:17:35;95330.00;;;9.72;76.20
61292;BME280;47165;42.664;23.368;2023-05-12T04:20:01;95338.44;;;9.77;76.11
61292;BME280;47165;42.664;23.368;2023-05-12T04:22:27;95325.94;;;9.84;76.37
61292;BME280;47165;42.664;23.368;2023-05-12T04:24:52;95325.44;;;9.58;76.41
61292;BME280;47165;42.664;23.368;2023-05-12T04:27:17;95322.25;;;9.71;76.22
61292;BME280;47165;42.664;23.368;2023-05-12T04:29:43;95330.00;;;9.72;76.57
61292;BME280;47165;42.664;23.368;2023-05-12T04:32:08;95332.16;;;9.64;76.97
61292;BME280;47165;42.664;23.368;2023-05-12T04:34:34;95334.63;;;9.84;76.61
61292;BME280;47165;42.664;23.368;2023-05-12T04:37:00;95320.06;;;9.80;76.89
61292;BME280;47165;42.664;23.368;2023-05-12T04:39:26;95339.91;;;10.00;76.15
61292;BME280;47165;42.664;23.368;2023-05-12T04:41:52;95334.09;;;10.13;75.86
61292;BME280;47165;42.664;23.368;2023-05-12T04:44:17;95328.44;;;10.22;75.08
61292;BME280;47165;42.664;23.368;2023-05-12T04:46:42;95325.31;;;10.33;75.13
61292;BME280;47165;42.664;23.368;2023-05-12T04:49:08;95334.91;;;10.32;74.34
61292;BME280;47165;42.664;23.368;2023-05-12T04:51:33;95334.66;;;10.37;74.67
61292;BME280;47165;42.664;23.368;2023-05-12T04:53:59;95331.44;;;10.49;74.25
61292;BME280;47165;42.664;23.368;2023-05-12T04:56:24;95328.66;;;10.52;73.73
61292;BME280;47165;42.664;23.368;2023-05-12T04:58:49;95334.50;;;10.57;73.57
61292;BME280;47165;42.664;23.368;2023-05-12T05:01:15;95328.88;;;10.65;73.35
61292;BME280;47165;42.664;23.368;2023-05-12T05:03:40;95336.38;;;10.71;72.53
61292;BME280;47165;42.664;23.368;2023-05-12T05:06:06;95334.88;;;10.67;72.91
61292;BME280;47165;42.664;23.368;2023-05-12T05:08:31;95337.41;;;10.51;71.78
61292;BME280;47165;42.664;23.368;2023-05-12T05:10:57;95330.91;;;10.42;71.22
61292;BME280;47165;42.664;23.368;2023-05-12T05:13:22;95327.91;;;10.50;72.77
61292;BME280;47165;42.664;23.368;2023-05-12T05:15:51;95339.72;;;10.57;72.96
61292;BME280;47165;42.664;23.368;2023-05-12T05:18:17;95337.59;;;10.48;73.13
61292;BME280;47165;42.664;23.368;2023-05-12T05:20:43;95331.44;;;10.49;72.74
61292;BME280;47165;42.664;23.368;2023-05-12T05:23:10;95336.56;;;10.16;74.42
61292;BME280;47165;42.664;23.368;2023-05-12T05:25:35;95343.00;;;10.08;75.21
61292;BME280;47165;42.664;23.368;2023-05-12T05:28:01;95335.19;;;10.26;75.24
61292;BME280;47165;42.664;23.368;2023-05-12T05:30:26;95349.09;;;10.44;74.42
61292;BME280;47165;42.664;23.368;2023-05-12T05:32:52;95345.25;;;10.51;74.34
61292;BME280;47165;42.664;23.368;2023-05-12T05:35:17;95336.25;;;10.57;73.21
61292;BME280;47165;42.664;23.368;2023-05-12T05:37:43;95333.41;;;10.61;73.13
61292;BME280;47165;42.664;23.368;2023-05-12T05:40:09;95340.88;;;10.52;73.68
61292;BME280;47165;42.664;23.368;2023-05-12T05:42:34;95338.50;;;10.47;74.01
61292;BME280;47165;42.664;23.368;2023-05-12T05:45:00;95348.41;;;10.40;74.09
61292;BME280;47165;42.664;23.368;2023-05-12T05:47:25;95340.19;;;10.48;74.15
61292;BME280;47165;42.664;23.368;2023-05-12T05:49:52;95347.94;;;10.50;74.02
61292;BME280;47165;42.664;23.368;2023-05-12T05:52:17;95347.47;;;10.59;73.86
61292;BME280;47165;42.664;23.368;2023-05-12T05:54:43;95351.69;;;10.61;73.23
61292;BME280;47165;42.664;23.368;2023-05-12T05:57:08;95354.72;;;10.36;72.72
61292;BME280;47165;42.664;23.368;2023-05-12T05:59:34;95347.25;;;10.46;73.23
61292;BME280;47165;42.664;23.368;2023-05-12T06:01:59;95350.09;;;10.59;73.27
61292;BME280;47165;42.664;23.368;2023-05-12T06:04:25;95347.72;;;10.54;73.70
61292;BME280;47165;42.664;23.368;2023-05-12T06:06:50;95353.22;;;10.65;73.39
61292;BME280;47165;42.664;23.368;2023-05-12T06:09:15;95354.28;;;10.61;73.10
61292;BME280;47165;42.664;23.368;2023-05-12T06:11:41;95351.63;;;10.63;73.41
61292;BME280;47165;42.664;23.368;2023-05-12T06:14:06;95352.16;;;10.52;73.87
61292;BME280;47165;42.664;23.368;2023-05-12T06:16:32;95353.28;;;10.64;73.42
61292;BME280;47165;42.664;23.368;2023-05-12T06:18:57;95356.19;;;10.75;71.74
61292;BME280;47165;42.664;23.368;2023-05-12T06:21:22;95357.81;;;10.78;72.38
61292;BME280;47165;42.664;23.368;2023-05-12T06:23:48;95362.72;;;10.84;72.68
61292;BME280;47165;42.664;23.368;2023-05-12T06:26:15;95361.94;;;10.82;71.50
61292;BME280;47165;42.664;23.368;2023-05-12T06:28:41;95363.16;;;10.92;72.04
61292;BME280;47165;42.664;23.368;2023-05-12T06:31:07;95362.72;;;10.84;71.89
61292;BME280;47165;42.664;23.368;2023-05-12T06:33:33;95368.81;;;10.67;72.36
61292;BME280;47165;42.664;23.368;2023-05-12T06:35:58;95368.44;;;10.75;71.27
61292;BME280;47165;42.664;23.368;2023-05-12T06:38:24;95373.00;;;10.87;71.49
61292;BME280;47165;42.664;23.368;2023-05-12T06:40:49;95374.97;;;10.99;71.69
61292;BME280;47165;42.664;23.368;2023-05-12T06:43:14;95375.41;;;11.07;71.32
61292;BME280;47165;42.664;23.368;2023-05-12T06:45:40;95378.63;;;11.13;71.33
61292;BME280;47165;42.664;23.368;2023-05-12T06:48:05;95385.22;;;11.20;71.15
61292;BME280;47165;42.664;23.368;2023-05-12T06:50:31;95376.38;;;11.22;70.32
61292;BME280;47165;42.664;23.368;2023-05-12T06:52:56;95382.09;;;11.29;69.79
61292;BME280;47165;42.664;23.368;2023-05-12T06:55:21;95379.16;;;11.35;69.54
61292;BME280;47165;42.664;23.368;2023-05-12T06:57:48;95380.69;;;11.39;69.78
61292;BME280;47165;42.664;23.368;2023-05-12T07:00:16;95376.13;;;11.43;70.00
61292;BME280;47165;42.664;23.368;2023-05-12T07:02:41;95376.63;;;11.50;69.92
61292;BME280;47165;42.664;23.368;2023-05-12T07:05:07;95367.47;;;11.42;68.99
61292;BME280;47165;42.664;23.368;2023-05-12T07:07:32;95374.63;;;11.55;69.29
61292;BME280;47165;42.664;23.368;2023-05-12T07:09:59;95369.97;;;11.60;69.51
61292;BME280;47165;42.664;23.368;2023-05-12T07:12:25;95376.22;;;11.57;69.34
61292;BME280;47165;42.664;23.368;2023-05-12T07:14:50;95372.78;;;11.57;68.68
61292;BME280;47165;42.664;23.368;2023-05-12T07:17:15;95380.72;;;11.71;68.45
61292;BME280;47165;42.664;23.368;2023-05-12T07:19:41;95380.72;;;11.71;67.66
61292;BME280;47165;42.664;23.368;2023-05-12T07:22:07;95385.59;;;11.77;68.15
61292;BME280;47165;42.664;23.368;2023-05-12T07:24:33;95381.88;;;11.81;68.40
61292;BME280;47165;42.664;23.368;2023-05-12T07:26:58;95380.72;;;11.71;67.72
61292;BME280;47165;42.664;23.368;2023-05-12T07:29:24;95384.50;;;11.65;68.14
61292;BME280;47165;42.664;23.368;2023-05-12T07:31:49;95385.25;;;11.52;68.66
61292;BME280;47165;42.664;23.368;2023-05-12T07:34:14;95392.41;;;11.64;69.25
61292;BME280;47165;42.664;23.368;2023-05-12T07:36:40;95383.47;;;11.68;69.24
61292;BME280;47165;42.664;23.368;2023-05-12T07:39:05;95377.47;;;11.82;69.05
61292;BME280;47165;42.664;23.368;2023-05-12T07:41:31;95378.84;;;11.89;69.23
61292;BME280;47165;42.664;23.368;2023-05-12T07:43:56;95380.94;;;11.82;67.84
61292;BME280;47165;42.664;23.368;2023-05-12T07:46:22;95381.97;;;11.96;68.21
61292;BME280;47165;42.664;23.368;2023-05-12T07:48:47;95381.28;;;12.08;67.23
61292;BME280;47165;42.664;23.368;2023-05-12T07:51:12;95366.16;;;12.13;67.60
61292;BME280;47165;42.664;23.368;2023-05-12T07:53:38;95376.50;;;12.31;68.29
61292;BME280;47165;42.664;23.368;2023-05-12T07:56:03;95377.91;;;12.36;66.97
61292;BME280;47165;42.664;23.368;2023-05-12T07:58:31;95372.16;;;12.45;66.31
61292;BME280;47165;42.664;23.368;2023-05-12T08:00:56;95371.34;;;12.59;66.07
61292;BME280;47165;42.664;23.368;2023-05-12T08:03:24;95359.91;;;12.60;65.77
61292;BME280;47165;42.664;23.368;2023-05-12T08:05:49;95376.41;;;12.77;65.18
61292;BME280;47165;42.664;23.368;2023-05-12T08:08:15;95368.72;;;12.59;64.49
61292;BME280;47165;42.664;23.368;2023-05-12T08:10:41;95371.91;;;12.64;64.93
61292;BME280;47165;42.664;23.368;2023-05-12T08:13:07;95368.28;;;12.81;64.81
61292;BME280;47165;42.664;23.368;2023-05-12T08:15:32;95376.44;;;13.05;64.32
61292;BME280;47165;42.664;23.368;2023-05-12T08:17:58;95379.66;;;13.11;63.14
61292;BME280;47165;42.664;23.368;2023-05-12T08:20:23;95373.44;;;13.26;63.24
61292;BME280;47165;42.664;23.368;2023-05-12T08:22:49;95376.09;;;13.40;63.53
61292;BME280;47165;42.664;23.368;2023-05-12T08:25:15;95366.41;;;13.55;63.04
61292;BME280;47165;42.664;23.368;2023-05-12T08:27:40;95371.25;;;13.76;61.74
61292;BME280;47165;42.664;23.368;2023-05-12T08:30:06;95376.50;;;13.76;60.30
61292;BME280;47165;42.664;23.368;2023-05-12T08:32:31;95368.84;;;13.58;60.24
61292;BME280;47165;42.664;23.368;2023-05-12T08:34:57;95376.69;;;13.73;59.03
61292;BME280;47165;42.664;23.368;2023-05-12T08:37:22;95375.47;;;13.78;59.28
61292;BME280;47165;42.664;23.368;2023-05-12T08:39:48;95371.94;;;13.65;59.54
61292;BME280;47165;42.664;23.368;2023-05-12T08:42:24;95379.19;;;13.88;58.98
61292;BME280;47165;42.664;23.368;2023-05-12T08:44:53;95374.31;;;13.97;60.88
61292;BME280;47165;42.664;23.368;2023-05-12T08:47:19;95374.09;;;14.00;59.39
61292;BME280;47165;42.664;23.368;2023-05-12T08:49:46;95374.13;;;14.13;59.04
61292;BME280;47165;42.664;23.368;2023-05-12T08:52:13;95362.84;;;13.98;58.21
61292;BME280;47165;42.664;23.368;2023-05-12T08:54:43;95365.22;;;14.15;58.21
61292;BME280;47165;42.664;23.368;2023-05-12T08:57:08;95368.28;;;14.22;59.04
61292;BME280;47165;42.664;23.368;2023-05-12T08:59:35;95371.31;;;13.88;58.20
61292;BME280;47165;42.664;23.368;2023-05-12T09:02:04;95378.97;;;13.92;58.48
61292;BME280;47165;42.664;23.368;2023-05-12T09:04:32;95365.13;;;13.89;57.23
61292;BME280;47165;42.664;23.368;2023-05-12T09:06:57;95369.84;;;13.84;56.32
61292;BME280;47165;42.664;23.368;2023-05-12T09:09:24;95369.63;;;13.87;57.28
61292;BME280;47165;42.664;23.368;2023-05-12T09:11:55;95364.97;;;14.05;57.54
61292;BME280;47165;42.664;23.368;2023-05-12T09:14:24;95350.72;;;14.09;56.10
61292;BME280;47165;42.664;23.368;2023-05-12T09:16:54;95353.59;;;14.19;56.71
61292;BME280;47165;42.664;23.368;2023-05-12T09:19:24;95348.53;;;14.29;57.70
61292;BME280;47165;42.664;23.368;2023-05-12T09:21:49;95341.69;;;14.14;54.87
61292;BME280;47165;42.664;23.368;2023-05-12T09:24:15;95354.59;;;14.17;54.56
61292;BME280;47165;42.664;23.368;2023-05-12T09:26:45;95347.38;;;14.20;55.70
61292;BME280;47165;42.664;23.368;2023-05-12T09:29:11;95352.03;;;14.29;56.66
61292;BME280;47165;42.664;23.368;2023-05-12T09:31:37;95344.56;;;14.23;55.81
61292;BME280;47165;42.664;23.368;2023-05-12T09:34:07;95352.69;;;14.06;54.75
61292;BME280;47165;42.664;23.368;2023-05-12T09:36:33;95349.16;;;14.20;55.29
61292;BME280;47165;42.664;23.368;2023-05-12T09:39:03;95340.78;;;14.27;55.32
61292;BME280;47165;42.664;23.368;2023-05-12T09:44:01;95336.72;;;14.49;54.47
61292;BME280;47165;42.664;23.368;2023-05-12T09:46:26;95341.06;;;14.63;55.23
61292;BME280;47165;42.664;23.368;2023-05-12T09:48:54;95349.69;;;14.78;54.06
61292;BME280;47165;42.664;23.368;2023-05-12T09:51:21;95348.22;;;14.86;54.20
61292;BME280;47165;42.664;23.368;2023-05-12T09:53:47;95342.78;;;14.77;52.03
61292;BME280;47165;42.664;23.368;2023-05-12T09:56:15;95348.88;;;14.90;52.82
61292;BME280;47165;42.664;23.368;2023-05-12T09:58:42;95335.63;;;14.79;52.35
61292;BME280;47165;42.664;23.368;2023-05-12T10:01:15;95335.50;;;14.80;50.17
61292;BME280;47165;42.664;23.368;2023-05-12T10:03:42;95338.94;;;14.55;51.07
61292;BME280;47165;42.664;23.368;2023-05-12T10:06:14;95334.25;;;14.73;51.38
61292;BME280;47165;42.664;23.368;2023-05-12T10:08:50;95330.31;;;14.53;51.99
61292;BME280;47165;42.664;23.368;2023-05-12T10:11:18;95318.47;;;14.73;51.22
61292;BME280;47165;42.664;23.368;2023-05-12T10:13:44;95327.63;;;14.67;50.32
61292;BME280;47165;42.664;23.368;2023-05-12T10:16:10;95328.84;;;14.49;50.43
61292;BME280;47165;42.664;23.368;2023-05-12T10:18:37;95324.06;;;14.68;50.70
61292;BME280;47165;42.664;23.368;2023-05-12T10:21:02;95323.09;;;14.82;51.44
61292;BME280;47165;42.664;23.368;2023-05-12T10:23:28;95317.00;;;15.07;50.75
61292;BME280;47165;42.664;23.368;2023-05-12T10:25:55;95319.38;;;15.23;48.63
61292;BME280;47165;42.664;23.368;2023-05-12T10:28:26;95323.25;;;15.43;50.38
61292;BME280;47165;42.664;23.368;2023-05-12T10:30:52;95318.22;;;15.40;49.66
61292;BME280;47165;42.664;23.368;2023-05-12T10:33:18;95321.13;;;15.48;49.71
61292;BME280;47165;42.664;23.368;2023-05-12T10:35:44;95305.47;;;15.71;49.57
61292;BME280;47165;42.664;23.368;2023-05-12T10:38:13;95311.38;;;15.99;50.83
61292;BME280;47165;42.664;23.368;2023-05-12T10:40:59;95302.97;;;16.18;49.62
61292;BME280;47165;42.664;23.368;2023-05-12T10:43:47;95306.00;;;16.24;47.66
61292;BME280;47165;42.664;23.368;2023-05-12T10:46:18;95307.44;;;16.28;47.28
61292;BME280;47165;42.664;23.368;2023-05-12T10:51:21;95295.78;;;16.55;46.82
61292;BME280;47165;42.664;23.368;2023-05-12T10:53:51;95290.97;;;16.49;46.31
61292;BME280;47165;42.664;23.368;2023-05-12T10:56:22;95296.53;;;16.80;47.10
61292;BME280;47165;42.664;23.368;2023-05-12T11:01:35;95302.09;;;17.33;47.72
61292;BME280;47165;42.664;23.368;2023-05-12T11:04:14;95292.75;;;17.29;44.56
61292;BME280;47165;42.664;23.368;2023-05-12T11:06:41;95301.88;;;17.02;44.18
61292;BME280;47165;42.664;23.368;2023-05-12T11:09:08;95295.25;;;17.30;45.26
61292;BME280;47165;42.664;23.368;2023-05-12T11:11:35;95303.06;;;17.43;45.27
61292;BME280;47165;42.664;23.368;2023-05-12T11:14:01;95306.16;;;17.60;44.93
61292;BME280;47165;42.664;23.368;2023-05-12T11:16:26;95303.09;;;17.76;45.02
61292;BME280;47165;42.664;23.368;2023-05-12T11:19:03;95310.06;;;17.88;47.43
61292;BME280;47165;42.664;23.368;2023-05-12T11:21:30;95309.88;;;17.46;43.00
61292;BME280;47165;42.664;23.368;2023-05-12T11:23:56;95309.53;;;17.17;43.09
61292;BME280;47165;42.664;23.368;2023-05-12T11:26:21;95313.59;;;16.87;43.79
61292;BME280;47165;42.664;23.368;2023-05-12T11:28:47;95312.16;;;17.05;44.90
61292;BME280;47165;42.664;23.368;2023-05-12T11:31:19;95318.78;;;17.11;44.76
61292;BME280;47165;42.664;23.368;2023-05-12T11:33:45;95312.66;;;17.22;45.85
61292;BME280;47165;42.664;23.368;2023-05-12T11:36:11;95317.78;;;17.35;45.99
61292;BME280;47165;42.664;23.368;2023-05-12T11:38:36;95310.97;;;17.32;45.28
61292;BME280;47165;42.664;23.368;2023-05-12T11:41:02;95322.13;;;17.36;45.61
61292;BME280;47165;42.664;23.368;2023-05-12T11:43:28;95316.63;;;17.27;43.11
61292;BME280;47165;42.664;23.368;2023-05-12T11:45:53;95320.31;;;17.14;42.90
61292;BME280;47165;42.664;23.368;2023-05-12T11:48:32;95318.06;;;17.09;44.38
61292;BME280;47165;42.664;23.368;2023-05-12T11:51:01;95315.16;;;16.89;43.77
61292;BME280;47165;42.664;23.368;2023-05-12T11:53:26;95316.34;;;16.85;43.88
61292;BME280;47165;42.664;23.368;2023-05-12T11:55:53;95316.59;;;16.94;43.37
61292;BME280;47165;42.664;23.368;2023-05-12T11:58:24;95307.91;;;16.80;44.44
61292;BME280;47165;42.664;23.368;2023-05-12T12:00:51;95316.41;;;16.73;44.80
61292;BME280;47165;42.664;23.368;2023-05-12T12:03:17;95312.38;;;16.80;44.84
61292;BME280;47165;42.664;23.368;2023-05-12T12:05:45;95311.66;;;16.78;44.33
61292;BME280;47165;42.664;23.368;2023-05-12T12:08:21;95317.03;;;16.76;44.62
61292;BME280;47165;42.664;23.368;2023-05-12T12:10:46;95323.66;;;16.82;43.99
61292;BME280;47165;42.664;23.368;2023-05-12T12:13:18;95322.47;;;16.86;44.78
61292;BME280;47165;42.664;23.368;2023-05-12T12:15:43;95323.25;;;16.75;43.74
61292;BME280;47165;42.664;23.368;2023-05-12T12:18:08;95319.56;;;16.78;44.73
61292;BME280;47165;42.664;23.368;2023-05-12T12:20:34;95322.25;;;16.65;43.22
61292;BME280;47165;42.664;23.368;2023-05-12T12:22:59;95312.72;;;16.28;43.84
61292;BME280;47165;42.664;23.368;2023-05-12T12:25:25;95320.38;;;16.32;43.69
61292;BME280;47165;42.664;23.368;2023-05-12T12:27:50;95321.53;;;16.52;43.78
61292;BME280;47165;42.664;23.368;2023-05-12T12:30:17;95315.25;;;16.41;44.05
61292;BME280;47165;42.664;23.368;2023-05-12T12:32:43;95313.00;;;16.48;44.28
61292;BME280;47165;42.664;23.368;2023-05-12T12:35:09;95316.75;;;16.21;44.05
61292;BME280;47165;42.664;23.368;2023-05-12T12:37:35;95323.03;;;16.07;44.08
61292;BME280;47165;42.664;23.368;2023-05-12T12:40:01;95316.13;;;16.18;44.96
61292;BME280;47165;42.664;23.368;2023-05-12T12:42:33;95302.84;;;16.19;43.63
61292;BME280;47165;42.664;23.368;2023-05-12T12:44:58;95315.66;;;16.13;43.87
61292;BME280;47165;42.664;23.368;2023-05-12T12:47:24;95308.81;;;16.10;44.43
61292;BME280;47165;42.664;23.368;2023-05-12T12:49:49;95311.53;;;16.33;44.57
61292;BME280;47165;42.664;23.368;2023-05-12T12:52:15;95315.16;;;16.43;44.68
61292;BME280;47165;42.664;23.368;2023-05-12T12:54:40;95319.72;;;16.52;45.33
61292;BME280;47165;42.664;23.368;2023-05-12T12:57:06;95320.81;;;16.49;43.84
61292;BME280;47165;42.664;23.368;2023-05-12T12:59:31;95322.97;;;16.67;44.18
61292;BME280;47165;42.664;23.368;2023-05-12T13:01:57;95310.25;;;16.49;44.38
61292;BME280;47165;42.664;23.368;2023-05-12T13:04:24;95305.72;;;16.52;45.89
61292;BME280;47165;42.664;23.368;2023-05-12T13:06:49;95311.84;;;16.63;45.70